Latest Coastal Weather Observations for Darwin Harbour

IDD60701

Issued at 10:05 pm CST Thursday 17 April 2014 (issued every 10 minutes, with the page automatically refreshed every 10 minutes)

About coastal observations | Map of coastal stations | Coastal observations for NT | Marine services | Other Formats
Station Details ID: 014072 Name: DARWIN NTC AWS Lat: -12.47 Lon: 130.85 Height: 0.0 m
Data from the previous 72 hours. | See also: Recent months for locations in Northern Territory
Date/Time
CST
Temp

°C
Wind Pressure Rain
since 9am
mm
Weather Cloud Vis
km
Sea
Height
m
Swell
Dir
 
Speed
knots
Gust
knots
hPa Trend Height
m
Period
s
Dir
17/10:00pm 30.1 N 2 3 1010.8 - - - - - - - - -
17/09:30pm 29.6 NE 3 5 1010.6 - - - - - - - - -
17/09:00pm 29.8 NE 3 5 1010.4 - - - - - - - - -
17/08:30pm 30.2 N 3 6 1010.1 - - - - - - - - -
17/08:00pm 30.5 N 1 3 1009.9 - - - - - - - - -
17/07:30pm 30.3 NNW 1 3 1009.3 - - - - - - - - -
17/07:00pm 30.5 NNW 1 3 1009.1 - - - - - - - - -
17/06:30pm 30.3 N 2 5 1008.5 - - - - - - - - -
17/06:00pm 30.1 NNE 2 4 1007.9 - - - - - - - - -
17/05:30pm 29.7 E 3 5 1007.6 - - - - - - - - -
17/05:00pm 30.0 ENE 5 9 1007.6 - - - - - - - - -
17/04:30pm 30.5 NNW 3 6 1007.5 - - - - - - - - -
17/04:00pm 30.5 NNE 3 5 1007.5 - - - - - - - - -
17/03:30pm 29.8 NNE 3 6 1007.4 - - - - - - - - -
17/03:00pm 28.3 NNE 6 10 1007.9 - - - - - - - - -
17/02:30pm 27.9 NE 9 19 1007.9 - - - - - - - - -
17/02:00pm 30.3 W 8 11 1008.2 - - - - - - - - -
17/01:30pm 29.7 W 6 8 1008.5 - - - - - - - - -
17/01:00pm 29.6 W 6 9 1008.7 - - - - - - - - -
17/12:30pm 29.8 WSW 4 6 1009.2 - - - - - - - - -
17/12:00pm 30.0 SSE 3 5 1009.7 - - - - - - - - -
17/11:30am 29.1 SE 4 5 1010.1 - - - - - - - - -
17/11:00am 29.1 E 6 9 1010.7 - - - - - - - - -
17/10:30am 28.2 E 4 6 1010.6 - - - - - - - - -
17/10:00am 28.0 ESE 4 6 1010.7 - - - - - - - - -
17/09:30am 28.0 SE 5 8 1010.5 - - - - - - - - -
17/09:00am 27.9 SE 3 5 1010.1 - - - - - - - - -
17/08:30am 28.0 SSE 4 6 1010.1 - - - - - - - - -
17/08:00am 28.6 ESE 5 7 1010.0 - - - - - - - - -
17/07:30am 28.5 ESE 5 7 1009.8 - - - - - - - - -
17/07:00am 28.6 SSE 3 5 1009.7 - - - - - - - - -
17/06:30am 27.9 WSW 4 5 1009.3 - - - - - - - - -
17/06:00am 27.9 WSW 5 7 1009.0 - - - - - - - - -
17/05:30am 28.0 WSW 5 7 1008.7 - - - - - - - - -
17/05:00am 28.1 WSW 6 7 1008.6 - - - - - - - - -
17/04:30am 28.5 W 6 8 1008.3 - - - - - - - - -
17/04:00am 28.8 W 7 8 1008.3 - - - - - - - - -
17/03:30am 28.9 W 6 9 1008.1 - - - - - - - - -
17/03:00am 28.9 W 7 9 1008.2 - - - - - - - - -
17/02:30am 28.6 WNW 5 8 1008.4 - - - - - - - - -
17/02:00am 28.6 WNW 4 6 1008.7 - - - - - - - - -
17/01:30am 28.7 WNW 3 4 1009.0 - - - - - - - - -
17/01:00am 28.8 WNW 3 4 1009.5 - - - - - - - - -
17/12:30am 28.9 WNW 3 5 1009.6 - - - - - - - - -
17/12:00am 29.0 WNW 3 5 1009.6 - - - - - - - - -
 
Date/Time
CST
Temp

°C
Wind Pressure Rain
since 9am
mm
Weather Cloud Vis
km
Sea
Height
m
Swell
Dir
 
Speed
knots
Gust
knots
hPa Trend Height
m
Period
s
Dir
16/11:30pm 29.3 WNW 4 6 1009.7 - - - - - - - - -
16/11:00pm 29.6 W 4 6 1009.9 - - - - - - - - -
16/10:30pm 29.8 WNW 3 4 1009.6 - - - - - - - - -
16/10:00pm 30.3 NNW 4 7 1009.6 - - - - - - - - -
16/09:30pm 30.5 NNW 4 6 1009.3 - - - - - - - - -
16/09:00pm 31.0 NNW 2 4 1009.1 - - - - - - - - -
16/08:30pm 30.8 NNW 2 3 1008.6 - - - - - - - - -
16/08:00pm 31.0 N 2 5 1008.4 - - - - - - - - -
16/07:30pm 31.0 NNW 2 5 1008.1 - - - - - - - - -
16/07:00pm 31.4 NNW 2 6 1007.8 - - - - - - - - -
16/06:30pm 31.4 NNW 4 7 1007.6 - - - - - - - - -
16/06:00pm 31.4 NNW 6 10 1007.4 - - - - - - - - -
16/05:30pm 31.5 WNW 5 8 1007.1 - - - - - - - - -
16/05:00pm 31.7 WNW 4 6 1006.9 - - - - - - - - -
16/04:30pm 33.0 WSW 2 6 1006.8 - - - - - - - - -
16/04:00pm 32.5 SSW 2 4 1006.9 - - - - - - - - -
16/03:30pm 32.6 E 5 8 1007.0 - - - - - - - - -
16/03:00pm 32.5 E 7 9 1007.1 - - - - - - - - -
16/02:30pm 32.8 E 8 11 1007.2 - - - - - - - - -
16/02:00pm 32.8 E 8 12 1007.7 - - - - - - - - -
16/01:30pm 32.1 ESE 6 9 1008.0 - - - - - - - - -
16/01:00pm 31.8 SE 5 8 1008.6 - - - - - - - - -
16/12:30pm 31.5 SE 5 7 1009.0 - - - - - - - - -
16/12:00pm 31.0 ESE 6 8 1009.5 - - - - - - - - -
16/11:30am 30.6 SE 7 8 1010.0 - - - - - - - - -
16/11:00am 30.0 ESE 7 9 1010.6 - - - - - - - - -
16/10:30am 29.7 SE 5 8 1010.9 - - - - - - - - -
16/10:00am 28.5 S 5 7 1011.1 - - - - - - - - -
16/09:30am 28.4 SSE 3 5 1011.0 - - - - - - - - -
16/09:00am 28.3 SE 2 3 1010.8 - - - - - - - - -
16/08:30am 27.9 SSE 4 6 1010.6 - - - - - - - - -
16/08:00am 27.6 SSE 4 6 1010.5 - - - - - - - - -
16/07:30am 27.6 SE 5 10 1010.3 - - - - - - - - -
16/07:00am 27.6 SE 3 6 1010.1 - - - - - - - - -
16/06:30am 27.4 SSE 4 5 1009.6 - - - - - - - - -
16/06:00am 27.4 S 3 6 1009.5 - - - - - - - - -
16/05:30am 27.5 SSE 4 5 1009.3 - - - - - - - - -
16/05:00am 27.4 SE 4 8 1009.2 - - - - - - - - -
16/04:30am 27.7 SSE 3 6 1009.1 - - - - - - - - -
16/04:00am 28.3 CALM 0 1 1009.2 - - - - - - - - -
16/03:30am 27.9 ENE 1 2 1009.2 - - - - - - - - -
16/03:00am 27.9 NE 2 3 1009.2 - - - - - - - - -
16/02:30am 28.6 NNE 2 3 1009.2 - - - - - - - - -
16/02:00am 28.6 N 2 3 1009.5 - - - - - - - - -
16/01:30am 28.4 NNE 2 3 1009.7 - - - - - - - - -
16/01:00am 28.8 N 1 3 1010.1 - - - - - - - - -
16/12:30am 28.8 NE 1 3 1010.1 - - - - - - - - -
16/12:00am 28.9 CALM 0 1 1010.2 - - - - - - - - -
 
Date/Time
CST
Temp

°C
Wind Pressure Rain
since 9am
mm
Weather Cloud Vis
km
Sea
Height
m
Swell
Dir
 
Speed
knots
Gust
knots
hPa Trend Height
m
Period
s
Dir
15/11:30pm 29.1 CALM 0 2 1010.3 - - - - - - - - -
15/11:00pm 29.2 W 2 5 1010.4 - - - - - - - - -
15/10:30pm 28.8 NNE 4 8 1010.1 - - - - - - - - -
15/10:00pm 29.0 NNE 2 5 1010.1 - - - - - - - - -
15/09:30pm 28.8 NE 4 7 1009.9 - - - - - - - - -
15/09:00pm 28.9 NE 4 7 1009.9 - - - - - - - - -
15/08:30pm 29.2 NE 5 7 1009.6 - - - - - - - - -
15/08:00pm 29.4 NE 4 6 1009.4 - - - - - - - - -
15/07:30pm 29.8 NNE 3 7 1008.8 - - - - - - - - -
15/07:00pm 30.4 NNE 4 9 1008.4 - - - - - - - - -
15/06:30pm 32.1 NE 1 4 1008.0 - - - - - - - - -
15/06:00pm 32.7 ENE 4 7 1007.7 - - - - - - - - -
15/05:30pm 32.7 E 6 9 1007.5 - - - - - - - - -
15/05:00pm 32.5 ESE 8 11 1007.5 - - - - - - - - -
15/04:30pm 32.6 ESE 7 9 1007.2 - - - - - - - - -
15/04:00pm 32.2 ESE 6 9 1007.2 - - - - - - - - -
15/03:30pm 32.1 E 9 12 1007.3 - - - - - - - - -
15/03:00pm 31.7 E 9 14 1007.4 - - - - - - - - -
15/02:30pm 31.8 ESE 11 14 1007.6 - - - - - - - - -
15/02:00pm 31.4 ESE 10 14 1007.9 - - - - - - - - -
15/01:30pm 31.1 E 11 15 1008.3 - - - - - - - - -
15/01:00pm 30.9 ESE 13 15 1008.8 - - - - - - - - -
15/12:30pm 30.8 E 10 13 1009.3 - - - - - - - - -
15/12:00pm 29.9 E 9 13 1009.7 - - - - - - - - -
15/11:30am 28.8 ESE 13 16 1010.2 - - - - - - - - -
15/11:00am 28.3 ESE 12 15 1010.9 - - - - - - - - -
15/10:30am 28.2 ESE 13 15 1011.1 - - - - - - - - -
15/10:00am 27.9 E 9 12 1011.4 - - - - - - - - -
15/09:30am 27.4 E 8 11 1011.0 - - - - - - - - -
15/09:00am 27.6 E 7 9 1010.6 - - - - - - - - -
15/08:30am 27.6 E 8 10 1010.4 - - - - - - - - -
15/08:00am 27.5 ESE 8 10 1010.3 - - - - - - - - -
15/07:30am 27.6 SSE 8 13 1009.8 - - - - - - - - -
15/07:00am 27.4 SSE 9 14 1009.6 - - - - - - - - -
15/06:30am 28.1 SSE 9 12 1009.1 - - - - - - - - -
15/06:00am 27.9 SE 5 7 1009.0 - - - - - - - - -
15/05:30am 27.7 ESE 5 7 1008.6 - - - - - - - - -
15/05:00am 27.7 ESE 6 8 1008.7 - - - - - - - - -
15/04:30am 27.6 SE 4 6 1008.5 - - - - - - - - -
15/04:00am 27.3 SSE 6 8 1008.7 - - - - - - - - -
15/03:30am 27.4 SSE 6 8 1008.7 - - - - - - - - -
15/03:00am 27.6 E 3 5 1008.9 - - - - - - - - -
15/02:30am 27.6 ENE 2 5 1009.3 - - - - - - - - -
15/02:00am 27.6 E 5 8 1009.3 - - - - - - - - -
15/01:30am 27.6 ENE 3 6 1009.3 - - - - - - - - -
15/01:00am 27.8 ENE 4 7 1009.5 - - - - - - - - -
15/12:30am 27.9 E 5 7 1009.7 - - - - - - - - -
15/12:00am 28.1 E 3 5 1009.8 - - - - - - - - -
 
Date/Time
CST
Temp

°C
Wind Pressure Rain
since 9am
mm
Weather Cloud Vis
km
Sea
Height
m
Swell
Dir
 
Speed
knots
Gust
knots
hPa Trend Height
m
Period
s
Dir
14/11:30pm 28.1 E 2 4 1010.1 - - - - - - - - -
14/11:00pm 28.2 SE 1 3 1010.2 - - - - - - - - -
14/10:30pm 28.1 CALM 0 2 1010.0 - - - - - - - - -

Other Formats:

Comma delimited format used in spreadsheet applications
http://www.bom.gov.au/fwo/IDD60701/IDD60701.95122.axf

JavaScript Object Notation format (JSON) in row-major order
http://www.bom.gov.au/fwo/IDD60701/IDD60701.95122.json